createdAt,value
2023-03-03T00:02:05.937Z,26.60
2023-03-03T00:04:32.318Z,26.83
2023-03-03T00:06:58.683Z,30.23
2023-03-03T00:09:25.024Z,25.30
2023-03-03T00:11:56.040Z,28.77
2023-03-03T00:14:28.563Z,25.27
2023-03-03T00:16:56.545Z,25.73
2023-03-03T00:19:23.416Z,27.20
2023-03-03T00:21:51.455Z,24.87
2023-03-03T00:24:24.418Z,24.40
2023-03-03T00:26:56.141Z,26.03
2023-03-03T00:29:45.722Z,26.63
2023-03-03T00:32:12.076Z,27.07
2023-03-03T00:34:38.458Z,25.93
2023-03-03T00:37:27.759Z,26.20
2023-03-03T00:39:58.571Z,26.17
2023-03-03T00:42:27.716Z,25.70
2023-03-03T00:45:37.290Z,28.47
2023-03-03T00:48:29.978Z,25.73
2023-03-03T00:50:58.669Z,28.20
2023-03-03T00:53:30.279Z,27.23
2023-03-03T00:55:57.417Z,26.00
2023-03-03T00:58:24.740Z,22.93
2023-03-03T01:00:53.705Z,26.17
2023-03-03T01:03:22.760Z,25.27
2023-03-03T01:05:49.827Z,26.73
2023-03-03T01:08:16.557Z,27.83
2023-03-03T01:10:50.966Z,26.13
2023-03-03T01:13:20.612Z,23.87
2023-03-03T01:15:47.043Z,28.53
2023-03-03T01:18:14.227Z,27.47
2023-03-03T01:20:41.435Z,30.37
2023-03-03T01:23:08.391Z,27.00
2023-03-03T01:25:35.076Z,26.03
2023-03-03T01:28:01.450Z,27.83
2023-03-03T01:30:27.864Z,27.43
2023-03-03T01:32:54.440Z,27.57
2023-03-03T01:35:21.185Z,28.37
2023-03-03T01:37:47.641Z,29.67
2023-03-03T01:40:23.678Z,26.53
2023-03-03T01:42:50.085Z,28.53
2023-03-03T01:45:26.291Z,26.33
2023-03-03T01:48:06.402Z,27.03
2023-03-03T01:50:47.773Z,29.33
2023-03-03T01:53:23.925Z,31.60
2023-03-03T01:55:51.957Z,32.40
2023-03-03T01:58:46.814Z,32.93
2023-03-03T02:01:20.789Z,30.90
2023-03-03T02:03:48.385Z,31.63
2023-03-03T02:06:18.292Z,29.93
2023-03-03T02:08:53.622Z,31.23
2023-03-03T02:11:21.578Z,30.60
2023-03-03T02:13:48.144Z,29.50
2023-03-03T02:16:15.012Z,30.47
2023-03-03T02:18:41.403Z,30.73
2023-03-03T02:21:14.353Z,31.60
2023-03-03T02:24:27.611Z,33.03
2023-03-03T02:26:54.131Z,28.47
2023-03-03T02:29:20.665Z,31.13
2023-03-03T02:31:47.135Z,32.63
2023-03-03T02:34:13.551Z,31.03
2023-03-03T02:36:40.031Z,32.27
2023-03-03T02:39:10.718Z,32.83
2023-03-03T02:41:51.317Z,29.83
2023-03-03T02:44:20.261Z,32.37
2023-03-03T02:46:48.309Z,31.17
2023-03-03T02:49:17.160Z,31.70
2023-03-03T02:51:43.694Z,30.63
2023-03-03T02:54:12.990Z,31.30
2023-03-03T02:56:39.978Z,33.80
2023-03-03T02:59:07.489Z,32.50
2023-03-03T03:01:37.092Z,46.23
2023-03-03T03:04:09.402Z,35.17
2023-03-03T03:06:36.267Z,35.57
2023-03-03T03:09:03.300Z,33.53
2023-03-03T03:11:29.712Z,57.50
2023-03-03T03:13:56.067Z,48.10
2023-03-03T03:16:22.509Z,59.43
2023-03-03T03:18:50.614Z,38.20
2023-03-03T03:21:17.067Z,38.93
2023-03-03T03:23:43.440Z,42.60
2023-03-03T03:26:10.102Z,36.40
2023-03-03T03:28:36.936Z,38.17
2023-03-03T03:31:05.063Z,36.53
2023-03-03T03:33:31.509Z,34.03
2023-03-03T03:35:59.740Z,38.57
2023-03-03T03:38:27.271Z,38.23
2023-03-03T03:40:54.383Z,74.40
2023-03-03T03:43:20.775Z,42.40
2023-03-03T03:45:47.166Z,36.77
2023-03-03T03:48:13.814Z,43.07
2023-03-03T03:50:40.202Z,51.97
2023-03-03T03:53:07.062Z,48.50
2023-03-03T03:55:33.734Z,54.57
2023-03-03T03:58:00.225Z,51.93
2023-03-03T04:00:26.637Z,46.60
2023-03-03T04:02:53.098Z,76.23
2023-03-03T04:05:19.524Z,55.60
2023-03-03T04:07:45.888Z,52.27
2023-03-03T04:10:12.472Z,62.90
2023-03-03T04:12:38.840Z,47.63
2023-03-03T04:15:13.733Z,32.13
2023-03-03T04:17:40.420Z,46.97
2023-03-03T04:20:07.667Z,35.23
2023-03-03T04:22:35.963Z,34.27
2023-03-03T04:25:05.119Z,39.03
2023-03-03T04:27:32.995Z,32.17
2023-03-03T04:29:59.427Z,52.30
2023-03-03T04:32:26.246Z,53.20
2023-03-03T04:35:05.626Z,48.93
2023-03-03T04:37:34.127Z,49.83
2023-03-03T04:40:00.685Z,62.77
2023-03-03T04:42:28.116Z,44.37
2023-03-03T04:44:54.883Z,50.63
2023-03-03T04:47:21.250Z,161.37
2023-03-03T04:49:47.637Z,108.13
2023-03-03T04:52:14.006Z,66.03
2023-03-03T04:54:40.525Z,66.43
2023-03-03T04:57:07.824Z,43.30
2023-03-03T04:59:34.259Z,53.00
2023-03-03T05:02:00.633Z,88.90
2023-03-03T05:04:27.017Z,44.67
2023-03-03T05:06:53.394Z,57.37
2023-03-03T05:09:19.779Z,41.73
2023-03-03T05:11:46.144Z,45.77
2023-03-03T05:14:12.510Z,49.83
2023-03-03T05:16:38.866Z,66.60
2023-03-03T05:19:05.255Z,56.70
2023-03-03T05:21:31.631Z,58.03
2023-03-03T05:23:58.011Z,57.67
2023-03-03T05:26:24.387Z,129.43
2023-03-03T05:28:50.746Z,94.43
2023-03-03T05:31:17.178Z,113.50
2023-03-03T05:33:43.547Z,70.17
2023-03-03T05:36:09.918Z,65.23
2023-03-03T05:38:36.283Z,60.10
2023-03-03T05:41:02.638Z,58.80
2023-03-03T05:43:29.317Z,60.10
2023-03-03T05:45:59.046Z,54.30
2023-03-03T05:48:25.447Z,73.90
2023-03-03T05:50:52.168Z,45.50
2023-03-03T05:53:18.595Z,39.97
2023-03-03T05:55:44.979Z,41.23
2023-03-03T05:58:12.051Z,36.43
2023-03-03T06:00:38.586Z,44.77
2023-03-03T06:03:04.984Z,68.57
2023-03-03T06:05:31.421Z,60.60
2023-03-03T06:07:57.857Z,68.53
2023-03-03T06:10:24.785Z,60.30
2023-03-03T06:12:51.613Z,52.37
2023-03-03T06:15:18.273Z,34.30
2023-03-03T06:17:44.647Z,61.57
2023-03-03T06:20:11.636Z,31.57
2023-03-03T06:22:38.026Z,40.63
2023-03-03T06:25:04.747Z,41.57
2023-03-03T06:27:31.256Z,41.77
2023-03-03T06:29:57.670Z,53.60
2023-03-03T06:32:24.048Z,48.00
2023-03-03T06:34:50.481Z,37.03
2023-03-03T06:37:17.041Z,41.43
2023-03-03T06:39:43.425Z,51.23
2023-03-03T06:42:09.850Z,85.67
2023-03-03T06:44:36.353Z,91.57
2023-03-03T06:47:02.731Z,58.00
2023-03-03T06:49:29.117Z,122.50
2023-03-03T06:51:56.388Z,99.40
2023-03-03T06:54:30.750Z,67.83
2023-03-03T06:57:08.927Z,62.63
2023-03-03T06:59:35.298Z,93.00
2023-03-03T07:02:01.973Z,60.97
2023-03-03T07:04:31.769Z,66.23
2023-03-03T07:07:00.166Z,75.33
2023-03-03T07:09:29.123Z,47.60
2023-03-03T07:12:06.726Z,54.87
2023-03-03T07:14:35.145Z,41.50
2023-03-03T07:17:05.066Z,57.33
2023-03-03T07:19:36.006Z,104.93
2023-03-03T07:22:14.881Z,87.47
2023-03-03T07:24:42.318Z,45.67
2023-03-03T07:27:37.991Z,90.80
2023-03-03T07:30:16.174Z,61.13
2023-03-03T07:32:46.166Z,76.27
2023-03-03T07:35:47.246Z,70.37
2023-03-03T07:38:24.603Z,43.60
2023-03-03T07:40:57.031Z,79.10
2023-03-03T07:43:31.253Z,57.13
2023-03-03T07:46:36.418Z,57.90
2023-03-03T07:49:20.564Z,62.70
2023-03-03T07:51:47.006Z,47.77
2023-03-03T07:54:35.149Z,38.47
2023-03-03T07:57:33.966Z,46.20
2023-03-03T08:00:20.583Z,46.43
2023-03-03T08:03:00.531Z,54.27
2023-03-03T08:05:40.011Z,41.07
2023-03-03T08:08:09.063Z,61.13
2023-03-03T08:10:49.107Z,69.53
2023-03-03T08:13:21.826Z,47.13
2023-03-03T08:16:02.526Z,44.13
2023-03-03T08:18:34.384Z,46.30
2023-03-03T08:21:07.175Z,55.07
2023-03-03T08:23:33.537Z,50.17
2023-03-03T08:26:00.052Z,40.93
2023-03-03T08:28:26.433Z,51.03
2023-03-03T08:31:02.656Z,47.40
2023-03-03T08:33:32.578Z,43.60
2023-03-03T08:35:59.406Z,50.80
2023-03-03T08:38:26.265Z,38.90
2023-03-03T08:40:52.673Z,42.67
2023-03-03T08:43:21.566Z,38.13
2023-03-03T08:45:49.841Z,34.67
2023-03-03T08:48:16.763Z,41.33
2023-03-03T08:50:44.261Z,45.60
2023-03-03T08:53:12.696Z,45.57
2023-03-03T08:55:39.574Z,51.80
2023-03-03T08:58:06.363Z,47.73
2023-03-03T09:00:32.940Z,41.80
2023-03-03T09:02:59.315Z,38.40
2023-03-03T09:05:27.270Z,60.57
2023-03-03T09:07:55.220Z,69.30
2023-03-03T09:10:27.490Z,59.37
2023-03-03T09:12:56.617Z,64.47
2023-03-03T09:15:25.476Z,57.57
2023-03-03T09:17:52.347Z,48.10
2023-03-03T09:20:37.450Z,42.80
2023-03-03T09:23:34.944Z,46.90
2023-03-03T09:26:39.013Z,45.97
2023-03-03T09:29:14.500Z,43.83
2023-03-03T09:31:47.791Z,43.97
2023-03-03T09:34:42.420Z,44.93
2023-03-03T09:37:32.416Z,42.77
2023-03-03T09:39:58.995Z,54.17
2023-03-03T09:42:42.774Z,46.77
2023-03-03T09:45:40.108Z,36.00
2023-03-03T09:48:12.653Z,32.90
2023-03-03T09:50:53.048Z,37.60
2023-03-03T09:53:33.753Z,39.00
2023-03-03T09:56:30.348Z,38.27
2023-03-03T09:59:31.637Z,42.50
2023-03-03T10:02:16.837Z,37.60
2023-03-03T10:04:59.995Z,35.00
2023-03-03T10:07:35.614Z,34.37
2023-03-03T10:10:23.789Z,39.53
2023-03-03T10:13:41.499Z,34.60
2023-03-03T10:16:36.243Z,34.40
2023-03-03T10:19:15.019Z,38.53
2023-03-03T10:22:01.419Z,39.07
2023-03-03T10:24:31.820Z,39.43
2023-03-03T10:27:45.104Z,32.30
2023-03-03T10:30:48.520Z,35.80
2023-03-03T10:33:37.375Z,42.27
2023-03-03T10:36:30.492Z,38.83
2023-03-03T10:39:26.861Z,36.60
2023-03-03T10:42:24.785Z,35.03
2023-03-03T10:44:56.685Z,31.73
2023-03-03T10:47:45.926Z,31.57
2023-03-03T10:50:21.536Z,32.63
2023-03-03T10:53:15.986Z,35.43
2023-03-03T10:55:57.806Z,30.13
2023-03-03T10:58:40.913Z,30.90
2023-03-03T11:01:26.772Z,35.37
2023-03-03T11:04:19.509Z,32.40
2023-03-03T11:07:11.405Z,31.40
2023-03-03T11:09:50.730Z,31.20
2023-03-03T11:12:47.223Z,32.80
2023-03-03T11:15:20.673Z,26.97
2023-03-03T11:18:15.385Z,28.80
2023-03-03T11:21:12.634Z,36.53
2023-03-03T11:24:18.077Z,43.07
2023-03-03T11:27:06.801Z,54.20
2023-03-03T11:29:51.218Z,43.00
2023-03-03T11:32:29.736Z,40.60
2023-03-03T11:35:19.520Z,35.17
2023-03-03T11:38:02.134Z,32.93
2023-03-03T11:40:37.862Z,41.97
2023-03-03T11:43:18.574Z,39.40
2023-03-03T11:45:59.857Z,32.83
2023-03-03T11:48:42.421Z,46.40
2023-03-03T11:51:19.717Z,46.87
2023-03-03T11:53:59.389Z,43.37
2023-03-03T11:56:41.272Z,49.20
2023-03-03T11:59:33.400Z,51.70
2023-03-03T12:02:28.527Z,50.70
2023-03-03T12:05:19.568Z,47.67
2023-03-03T12:08:08.260Z,42.83
2023-03-03T12:11:08.942Z,53.20
2023-03-03T12:14:01.638Z,49.80
2023-03-03T12:16:42.822Z,46.57
2023-03-03T12:19:31.057Z,53.50
2023-03-03T12:22:29.593Z,62.93
2023-03-03T12:25:15.303Z,69.23
2023-03-03T12:27:49.264Z,57.07
2023-03-03T12:30:21.649Z,42.40
2023-03-03T12:33:07.371Z,45.83
2023-03-03T12:35:57.299Z,44.90
2023-03-03T12:38:51.776Z,51.40
2023-03-03T12:41:29.883Z,44.97
2023-03-03T12:44:07.104Z,45.87
2023-03-03T12:46:59.786Z,45.43
2023-03-03T12:49:43.463Z,52.43
2023-03-03T12:52:53.094Z,49.00
2023-03-03T12:55:42.684Z,48.20
2023-03-03T12:58:35.365Z,52.80
2023-03-03T13:01:20.161Z,50.03
2023-03-03T13:03:57.547Z,44.30
2023-03-03T13:06:32.209Z,41.10
2023-03-03T13:09:37.258Z,38.90
2023-03-03T13:12:18.873Z,38.07
2023-03-03T13:15:08.723Z,35.13
2023-03-03T13:18:03.938Z,34.07
2023-03-03T13:20:53.814Z,36.17
2023-03-03T13:23:44.619Z,39.43
2023-03-03T13:26:20.123Z,39.63
2023-03-03T13:28:58.692Z,44.97
2023-03-03T13:31:32.903Z,40.97
2023-03-03T13:34:01.985Z,38.93
2023-03-03T13:36:39.012Z,38.60
2023-03-03T13:39:17.900Z,36.97
2023-03-03T13:41:56.971Z,40.87
2023-03-03T13:44:42.802Z,34.97
2023-03-03T13:47:36.146Z,37.73
2023-03-03T13:50:22.549Z,36.17
2023-03-03T13:53:04.996Z,37.83
2023-03-03T13:55:41.027Z,42.33
2023-03-03T13:58:38.298Z,38.07
2023-03-03T14:01:13.613Z,38.03
2023-03-03T14:03:40.008Z,38.30
2023-03-03T14:06:14.884Z,36.57
2023-03-03T14:09:22.541Z,35.73
2023-03-03T14:12:21.718Z,30.30
2023-03-03T14:14:55.696Z,31.50
2023-03-03T14:17:34.660Z,31.93
2023-03-03T14:20:15.718Z,32.23
2023-03-03T14:22:45.757Z,37.00
2023-03-03T14:25:14.815Z,29.37
2023-03-03T14:27:44.461Z,29.70
2023-03-03T14:30:23.773Z,28.23
2023-03-03T14:33:09.746Z,32.60
2023-03-03T14:35:42.468Z,27.87
2023-03-03T14:38:08.830Z,27.70
2023-03-03T14:40:38.953Z,34.43
2023-03-03T14:43:39.136Z,35.60
2023-03-03T14:46:27.707Z,44.50
2023-03-03T14:48:57.613Z,36.27
2023-03-03T14:51:28.990Z,33.67
2023-03-03T14:53:57.400Z,32.37
2023-03-03T14:56:31.220Z,34.80
2023-03-03T14:59:18.741Z,33.20
2023-03-03T15:01:46.047Z,39.10
2023-03-03T15:04:15.378Z,27.07
2023-03-03T15:06:55.402Z,29.20
2023-03-03T15:09:43.205Z,27.33
2023-03-03T15:12:36.235Z,27.20
2023-03-03T15:15:26.814Z,28.20
2023-03-03T15:17:58.070Z,28.17
2023-03-03T15:20:52.770Z,28.50
2023-03-03T15:23:37.938Z,27.30
2023-03-03T15:26:32.430Z,27.73
2023-03-03T15:29:17.290Z,27.83
2023-03-03T15:32:20.089Z,25.37
2023-03-03T15:35:14.363Z,25.30
2023-03-03T15:37:47.130Z,29.03
2023-03-03T15:40:37.971Z,27.83
2023-03-03T15:43:27.144Z,28.87
2023-03-03T15:46:13.772Z,26.57
2023-03-03T15:48:58.201Z,26.63
2023-03-03T15:51:50.714Z,26.63
2023-03-03T15:54:42.261Z,28.10
2023-03-03T15:57:35.017Z,26.60
2023-03-03T16:00:22.202Z,27.10
2023-03-03T16:02:59.099Z,27.63
2023-03-03T16:05:31.531Z,24.70
2023-03-03T16:08:00.931Z,25.63
2023-03-03T16:11:03.886Z,26.83
2023-03-03T16:14:02.198Z,27.03
2023-03-03T16:16:54.362Z,23.80
2023-03-03T16:19:38.664Z,27.33
2023-03-03T16:22:24.104Z,25.67
2023-03-03T16:25:16.471Z,27.50
2023-03-03T16:28:10.117Z,23.70
2023-03-03T16:31:10.923Z,23.83
2023-03-03T16:33:50.807Z,31.40
2023-03-03T16:36:37.041Z,24.67
2023-03-03T16:39:23.148Z,29.00
2023-03-03T16:42:00.443Z,27.33
2023-03-03T16:44:49.309Z,27.40
2023-03-03T16:47:35.891Z,27.63
2023-03-03T16:50:26.340Z,28.80
2023-03-03T16:53:17.526Z,25.83
2023-03-03T16:56:09.800Z,27.73
2023-03-03T16:58:58.628Z,26.00
2023-03-03T17:01:29.523Z,36.83
2023-03-03T17:04:00.707Z,26.87
2023-03-03T17:06:36.514Z,28.17
2023-03-03T17:09:32.218Z,26.57
2023-03-03T17:12:25.870Z,26.87
2023-03-03T17:15:22.197Z,31.10
2023-03-03T17:18:00.500Z,27.47
2023-03-03T17:20:46.048Z,32.17
2023-03-03T17:23:41.310Z,25.47
2023-03-03T17:26:30.745Z,25.90
2023-03-03T17:29:15.269Z,27.77
2023-03-03T17:32:08.440Z,26.67
2023-03-03T17:34:47.987Z,25.83
2023-03-03T17:37:44.065Z,27.43
2023-03-03T17:40:35.827Z,27.90
2023-03-03T17:43:29.636Z,28.20
2023-03-03T17:46:02.113Z,30.13
2023-03-03T17:49:08.586Z,28.47
2023-03-03T17:51:51.516Z,29.53
2023-03-03T17:54:31.932Z,29.57
2023-03-03T17:57:28.056Z,29.47
2023-03-03T18:00:14.962Z,27.57
2023-03-03T18:03:12.587Z,25.07
2023-03-03T18:05:50.739Z,25.10
2023-03-03T18:09:01.987Z,26.53
2023-03-03T18:12:18.301Z,26.43
2023-03-03T18:15:12.008Z,25.83
2023-03-03T18:18:05.478Z,27.57
2023-03-03T18:20:47.028Z,29.83
2023-03-03T18:23:41.750Z,28.90
2023-03-03T18:26:41.217Z,28.03
2023-03-03T18:29:16.606Z,29.27
2023-03-03T18:31:51.904Z,28.40
2023-03-03T18:34:21.209Z,28.37
2023-03-03T18:36:55.644Z,30.20
2023-03-03T18:39:41.037Z,29.13
2023-03-03T18:42:16.162Z,31.00
2023-03-03T18:44:44.057Z,26.73
2023-03-03T18:47:11.261Z,27.60
2023-03-03T18:49:52.697Z,30.07
2023-03-03T18:52:30.082Z,29.77
2023-03-03T18:55:24.194Z,31.37
2023-03-03T18:58:28.622Z,31.03
2023-03-03T19:01:30.396Z,29.63
2023-03-03T19:04:09.894Z,28.47
2023-03-03T19:06:36.178Z,28.80
2023-03-03T19:09:03.903Z,31.70
2023-03-03T19:11:40.763Z,30.80
2023-03-03T19:14:29.589Z,26.93
2023-03-03T19:16:58.510Z,29.17
2023-03-03T19:19:34.333Z,31.33
2023-03-03T19:22:27.189Z,30.83
2023-03-03T19:25:08.805Z,29.93
2023-03-03T19:28:11.197Z,29.97
2023-03-03T19:30:55.853Z,26.17
2023-03-03T19:33:56.759Z,30.30
2023-03-03T19:36:47.292Z,28.40
2023-03-03T19:39:26.436Z,30.80
2023-03-03T19:42:28.085Z,31.20
2023-03-03T19:45:15.154Z,30.93
2023-03-03T19:48:04.476Z,32.87
2023-03-03T19:50:45.798Z,29.57
2023-03-03T19:53:24.971Z,28.17
2023-03-03T19:56:07.014Z,27.57
2023-03-03T19:58:45.647Z,26.77
2023-03-03T20:01:49.398Z,27.93
2023-03-03T20:04:31.403Z,28.10
2023-03-03T20:07:16.103Z,31.53
2023-03-03T20:09:52.033Z,29.37
2023-03-03T20:12:50.587Z,29.57
2023-03-03T20:15:28.366Z,29.27
2023-03-03T20:18:34.912Z,26.40
2023-03-03T20:21:12.101Z,26.90
2023-03-03T20:24:16.336Z,25.83
2023-03-03T20:27:13.986Z,21.07
2023-03-03T20:29:51.406Z,23.83
2023-03-03T20:33:08.056Z,21.30
2023-03-03T20:35:40.513Z,22.80
2023-03-03T20:38:18.336Z,21.20
2023-03-03T20:41:06.045Z,20.40
2023-03-03T20:43:57.186Z,18.07
2023-03-03T20:46:30.404Z,15.73
2023-03-03T20:49:27.594Z,17.73
2023-03-03T20:52:19.210Z,16.10
2023-03-03T20:55:17.514Z,18.40
2023-03-03T20:57:53.053Z,19.20
2023-03-03T21:00:43.909Z,23.50
2023-03-03T21:03:37.373Z,22.67
2023-03-03T21:06:15.454Z,24.30
2023-03-03T21:08:55.055Z,22.07
2023-03-03T21:11:43.266Z,23.23
2023-03-03T21:14:26.533Z,22.63
2023-03-03T21:16:58.332Z,26.37
2023-03-03T21:19:27.632Z,23.30
2023-03-03T21:21:55.414Z,23.63
2023-03-03T21:24:22.603Z,24.80
2023-03-03T21:26:59.918Z,21.03
2023-03-03T21:29:27.563Z,27.53
2023-03-03T21:31:58.710Z,24.67
2023-03-03T21:34:34.246Z,21.73
2023-03-03T21:37:05.537Z,25.30
2023-03-03T21:39:37.530Z,26.20
2023-03-03T21:42:09.225Z,23.80
2023-03-03T21:44:44.634Z,25.57
2023-03-03T21:47:14.662Z,25.63
2023-03-03T21:49:46.002Z,22.67
2023-03-03T21:52:14.937Z,30.90
2023-03-03T21:54:41.280Z,24.83
2023-03-03T21:57:07.658Z,25.73
2023-03-03T21:59:34.022Z,22.90
2023-03-03T22:02:00.486Z,26.00
2023-03-03T22:04:26.875Z,23.73
2023-03-03T22:06:53.243Z,26.57
2023-03-03T22:09:19.674Z,24.53
2023-03-03T22:11:46.527Z,25.07
2023-03-03T22:14:13.140Z,21.13
2023-03-03T22:16:39.619Z,24.10
2023-03-03T22:19:09.086Z,26.00
2023-03-03T22:21:36.698Z,21.10
2023-03-03T22:24:04.059Z,23.33
2023-03-03T22:26:30.421Z,23.10
2023-03-03T22:28:56.808Z,20.90
2023-03-03T22:31:23.233Z,23.90
2023-03-03T22:33:49.643Z,24.10
2023-03-03T22:36:16.379Z,24.83
2023-03-03T22:38:42.889Z,24.47
2023-03-03T22:41:09.309Z,23.57
2023-03-03T22:43:35.665Z,22.93
2023-03-03T22:46:02.075Z,29.27
2023-03-03T22:48:29.179Z,28.10
2023-03-03T22:50:55.590Z,30.57
2023-03-03T22:53:22.304Z,32.63
2023-03-03T22:55:48.787Z,33.70
2023-03-03T22:58:19.665Z,37.77
2023-03-03T23:00:47.577Z,38.33
2023-03-03T23:03:14.251Z,36.57
2023-03-03T23:05:40.963Z,35.27
2023-03-03T23:08:10.249Z,42.50
2023-03-03T23:10:36.696Z,43.47
2023-03-03T23:13:03.064Z,42.07
2023-03-03T23:15:29.682Z,45.73
2023-03-03T23:17:56.059Z,47.20
2023-03-03T23:20:28.200Z,44.57
2023-03-03T23:22:54.985Z,46.40
2023-03-03T23:25:25.018Z,49.10
2023-03-03T23:27:52.218Z,44.80
2023-03-03T23:30:20.443Z,50.00
2023-03-03T23:32:47.764Z,49.83
2023-03-03T23:35:14.657Z,50.87
2023-03-03T23:37:41.029Z,55.40
2023-03-03T23:40:08.802Z,47.87
2023-03-03T23:42:35.161Z,55.00
2023-03-03T23:45:01.596Z,53.00
2023-03-03T23:47:27.972Z,53.97
2023-03-03T23:49:54.345Z,56.93
2023-03-03T23:52:20.704Z,51.10
2023-03-03T23:54:47.063Z,49.70
2023-03-03T23:57:14.391Z,51.03
2023-03-03T23:59:40.790Z,49.20
